Time;durP1;ratioP1;P1;durP2;ratioP2;P2;SDS_P1;SDS_P2;PMS_P1;PMS_P2;Temp;Humidity;BMP_temperature;BMP_pressure;BME280_temperature;BME280_humidity;BME280_pressure;Samples;Min_cycle;Max_cycle;Signal;HPM_P1;HPM_P2
2020/12/25 00:01:46;;;;;;;0.10;0.10;;;4.00;99.90;;;;;;4976311;28;20400;-94
2020/12/25 00:04:13;;;;;;;0.45;0.45;;;3.90;99.90;;;;;;4976632;28;20121;-94
2020/12/25 00:06:39;;;;;;;0.30;0.30;;;3.90;1.00;;;;;;4980249;28;20096;-95
2020/12/25 00:09:07;;;;;;;0.10;0.10;;;3.90;99.90;;;;;;4980612;28;20510;-94
2020/12/25 00:11:37;;;;;;;0.10;0.10;;;3.80;88.40;;;;;;4981073;28;20030;-95
2020/12/25 00:14:04;;;;;;;0.40;0.40;;;3.60;1.00;;;;;;4980016;28;20170;-94
2020/12/25 00:16:32;;;;;;;0.13;0.13;;;3.60;20.90;;;;;;4980148;28;20117;-94
2020/12/25 00:18:59;;;;;;;0.10;0.10;;;3.50;99.90;;;;;;4980329;28;20039;-95
2020/12/25 00:21:26;;;;;;;0.10;0.10;;;3.60;99.90;;;;;;4980445;28;20030;-96
2020/12/25 00:23:53;;;;;;;0.10;0.10;;;3.50;99.90;;;;;;4980054;28;20031;-94
2020/12/25 00:26:28;;;;;;;0.17;0.17;;;3.40;99.90;;;;;;4981179;28;20022;-93
2020/12/25 00:28:56;;;;;;;0.10;0.10;;;3.30;99.90;;;;;;4980673;28;20027;-94
2020/12/25 00:31:28;;;;;;;0.20;0.20;;;3.30;99.90;;;;;;4980379;28;20037;-95
2020/12/25 00:34:00;;;;;;;0.38;0.38;;;3.20;99.90;;;;;;4980898;28;20085;-92
2020/12/25 00:36:34;;;;;;;0.05;0.05;;;3.10;99.90;;;;;;4962539;28;20058;-92
2020/12/25 00:39:03;;;;;;;0.10;0.10;;;3.20;99.90;;;;;;4969974;28;20030;-93
2020/12/25 00:41:29;;;;;;;0.30;0.30;;;3.10;99.90;;;;;;4970384;28;20034;-93
2020/12/25 00:43:56;;;;;;;0.40;0.40;;;3.10;99.90;;;;;;4963703;28;20396;-92
2020/12/25 00:46:23;;;;;;;1.05;0.95;;;3.00;99.90;;;;;;4961589;28;20031;-94
2020/12/25 00:48:50;;;;;;;5.80;1.20;;;3.00;90.70;;;;;;4961117;28;20068;-93
2020/12/25 00:51:19;;;;;;;0.50;0.50;;;3.00;38.80;;;;;;4960802;28;20039;-94
2020/12/25 00:53:46;;;;;;;1.40;0.52;;;3.00;6.40;;;;;;4961135;28;20070;-92
2020/12/25 00:56:13;;;;;;;;;;;2.90;7.60;;;;;;4960508;28;20026;-93
2020/12/25 00:58:41;;;;;;;1.00;1.00;;;2.80;14.90;;;;;;4960286;28;19913;-92
2020/12/25 01:01:10;;;;;;;0.10;0.10;;;2.80;1.00;;;;;;4962324;28;20053;-91
2020/12/25 01:03:38;;;;;;;0.10;0.10;;;2.80;1.00;;;;;;4959280;28;20023;-91
2020/12/25 01:06:11;;;;;;;0.20;0.20;;;2.80;1.00;;;;;;4968509;28;20456;-91
2020/12/25 01:08:38;;;;;;;1.05;1.00;;;2.60;1.00;;;;;;4961448;28;20030;-92
2020/12/25 01:11:08;;;;;;;0.20;0.20;;;2.60;1.00;;;;;;4957906;28;20030;-92
2020/12/25 01:13:36;;;;;;;0.28;0.28;;;2.40;4.00;;;;;;4961392;28;20023;-91
2020/12/25 01:16:16;;;;;;;0.15;0.15;;;2.50;1.00;;;;;;4969741;28;20449;-93
2020/12/25 01:18:48;;;;;;;0.08;0.08;;;2.40;1.00;;;;;;4946543;28;20041;-92
2020/12/25 01:21:16;;;;;;;0.10;0.10;;;2.50;1.00;;;;;;4965609;28;20046;-92
2020/12/25 01:23:44;;;;;;;0.77;0.77;;;2.30;1.00;;;;;;4972981;28;20058;-91
2020/12/25 01:26:12;;;;;;;0.10;0.10;;;2.30;1.00;;;;;;4959199;28;20033;-92
2020/12/25 01:28:39;;;;;;;0.65;0.45;;;2.40;1.00;;;;;;4961937;28;20110;-92
2020/12/25 01:31:06;;;;;;;;;;;2.30;1.00;;;;;;4962984;28;20373;-92
2020/12/25 01:33:36;;;;;;;1.13;0.63;;;2.10;1.00;;;;;;4967048;28;19914;-91
2020/12/25 01:36:04;;;;;;;0.10;0.10;;;2.20;1.00;;;;;;4963071;28;20519;-90
2020/12/25 01:38:31;;;;;;;0.10;0.10;;;2.20;1.00;;;;;;4965216;28;20487;-91
2020/12/25 01:40:58;;;;;;;0.10;0.10;;;2.30;1.00;;;;;;4978603;28;20058;-91
2020/12/25 01:43:25;;;;;;;0.10;0.10;;;2.10;1.00;;;;;;4968982;28;20452;-91
2020/12/25 01:45:52;;;;;;;0.10;0.10;;;2.30;1.00;;;;;;4967083;28;20058;-91
2020/12/25 01:48:18;;;;;;;;;;;2.20;99.90;;;;;;4963979;28;20029;-91
2020/12/25 01:50:45;;;;;;;0.10;0.10;;;2.20;99.90;;;;;;4958330;28;20017;-91
2020/12/25 01:53:15;;;;;;;0.10;0.10;;;2.10;99.90;;;;;;4956408;28;20038;-91
2020/12/25 01:55:42;;;;;;;0.10;0.10;;;2.00;99.90;;;;;;4963783;28;20038;-91
2020/12/25 01:58:09;;;;;;;0.10;0.10;;;1.90;1.00;;;;;;4950684;28;20061;-93
2020/12/25 02:00:36;;;;;;;0.10;0.10;;;2.00;99.90;;;;;;4958114;28;20116;-92
2020/12/25 02:03:02;;;;;;;0.10;0.10;;;2.10;1.00;;;;;;4962649;28;20022;-92
2020/12/25 02:05:30;;;;;;;0.10;0.10;;;2.10;99.90;;;;;;4973833;28;20105;-91
2020/12/25 02:07:57;;;;;;;0.10;0.10;;;2.10;99.90;;;;;;4959378;28;20035;-94
2020/12/25 02:10:24;;;;;;;0.10;0.10;;;2.10;99.90;;;;;;4957946;28;20102;-93
2020/12/25 02:12:53;;;;;;;0.30;0.30;;;2.20;99.90;;;;;;4956951;28;20059;-92
2020/12/25 02:15:20;;;;;;;0.10;0.10;;;2.20;99.90;;;;;;4969760;28;20026;-92
2020/12/25 02:17:48;;;;;;;0.10;0.10;;;2.20;99.90;;;;;;4977683;28;20484;-93
2020/12/25 02:20:14;;;;;;;0.10;0.10;;;2.10;99.90;;;;;;4971042;28;20027;-93
2020/12/25 02:22:42;;;;;;;0.35;0.35;;;1.90;99.90;;;;;;4974520;28;20035;-93
2020/12/25 02:25:08;;;;;;;;;;;1.80;1.00;;;;;;4958800;28;20061;-91
2020/12/25 02:27:35;;;;;;;0.25;0.25;;;1.70;1.00;;;;;;4960745;28;19906;-92
2020/12/25 02:30:03;;;;;;;;;;;1.70;1.00;;;;;;4972375;28;20061;-92
2020/12/25 02:32:29;;;;;;;0.10;0.10;;;1.60;1.00;;;;;;4969028;28;19917;-91
2020/12/25 02:34:55;;;;;;;0.40;0.40;;;1.60;1.00;;;;;;4962259;28;20423;-91
2020/12/25 02:37:21;;;;;;;0.10;0.10;;;1.70;1.00;;;;;;4962792;28;20042;-93
2020/12/25 02:39:48;;;;;;;0.10;0.10;;;1.60;1.00;;;;;;4954249;28;20034;-90
2020/12/25 02:42:14;;;;;;;1.27;1.00;;;1.20;11.00;;;;;;4953326;28;20082;-89
2020/12/25 02:44:43;;;;;;;0.10;0.10;;;1.30;73.80;;;;;;4959848;28;20114;-91
2020/12/25 02:47:10;;;;;;;0.08;0.08;;;1.10;71.30;;;;;;4957701;28;20061;-91
2020/12/25 02:49:38;;;;;;;0.10;0.10;;;1.40;37.20;;;;;;4954349;28;20070;-94
2020/12/25 02:52:04;;;;;;;0.03;0.03;;;1.60;1.00;;;;;;4961172;28;20057;-93
2020/12/25 02:54:32;;;;;;;0.30;0.30;;;1.50;1.00;;;;;;4956613;28;20054;-93
2020/12/25 02:56:59;;;;;;;0.10;0.10;;;1.70;1.00;;;;;;4960873;28;20030;-92
2020/12/25 02:59:27;;;;;;;0.10;0.10;;;1.60;1.00;;;;;;4958043;28;20030;-94
2020/12/25 03:01:54;;;;;;;0.10;0.10;;;1.60;1.00;;;;;;4979244;28;20026;-93
2020/12/25 03:04:21;;;;;;;0.10;0.10;;;1.60;1.00;;;;;;4965755;28;20076;-93
2020/12/25 03:06:48;;;;;;;0.10;0.10;;;1.50;1.00;;;;;;4898481;28;1644521;-93
2020/12/25 03:09:15;;;;;;;0.25;0.25;;;1.50;1.00;;;;;;4975429;28;20030;-94
2020/12/25 03:11:41;;;;;;;0.15;0.15;;;1.60;1.00;;;;;;4970763;28;20026;-95
2020/12/25 03:14:08;;;;;;;0.43;0.43;;;1.60;1.00;;;;;;4957748;28;20037;-96
2020/12/25 03:16:35;;;;;;;0.20;0.20;;;1.80;1.00;;;;;;4958839;28;20113;-96
2020/12/25 03:19:02;;;;;;;0.10;0.10;;;1.90;1.00;;;;;;4958674;28;20031;-94
2020/12/25 03:21:29;;;;;;;;;;;1.70;1.00;;;;;;4958984;28;20042;-95
2020/12/25 03:23:56;;;;;;;0.10;0.10;;;1.60;1.00;;;;;;4959012;28;19906;-94
2020/12/25 03:26:23;;;;;;;0.65;0.65;;;1.60;1.00;;;;;;4955031;28;20042;-92
2020/12/25 03:28:49;;;;;;;;;;;1.40;1.00;;;;;;4965479;28;21640;-92
2020/12/25 03:31:16;;;;;;;1.77;0.60;;;1.60;1.00;;;;;;4963454;28;19906;-95
2020/12/25 03:33:43;;;;;;;2.47;1.55;;;1.60;1.00;;;;;;4960402;28;20050;-92
2020/12/25 03:36:09;;;;;;;0.10;0.10;;;1.80;1.00;;;;;;4960759;28;20058;-93
2020/12/25 03:38:36;;;;;;;0.10;0.10;;;1.70;1.00;;;;;;4955818;28;20071;-93
2020/12/25 03:41:03;;;;;;;0.10;0.10;;;1.80;1.00;;;;;;4967582;28;20042;-93
2020/12/25 03:43:30;;;;;;;0.10;0.10;;;1.70;1.00;;;;;;4965000;28;20058;-93
2020/12/25 03:45:56;;;;;;;0.10;0.10;;;1.60;1.00;;;;;;4966494;28;20029;-92
2020/12/25 03:48:23;;;;;;;0.10;0.10;;;1.60;1.00;;;;;;4958070;28;20031;-95
2020/12/25 03:50:49;;;;;;;0.10;0.10;;;1.50;1.00;;;;;;4957372;28;20022;-94
2020/12/25 03:53:16;;;;;;;0.10;0.10;;;1.50;1.00;;;;;;4957502;28;20062;-93
2020/12/25 03:55:43;;;;;;;0.65;0.65;;;1.50;1.00;;;;;;4957338;28;20023;-92
2020/12/25 03:58:09;;;;;;;0.10;0.10;;;1.40;1.00;;;;;;4967823;28;20037;-94
2020/12/25 04:00:36;;;;;;;0.10;0.10;;;1.40;1.00;;;;;;4976443;28;20023;-93
2020/12/25 04:03:02;;;;;;;0.10;0.10;;;1.40;1.00;;;;;;4957870;28;20046;-94
2020/12/25 04:05:29;;;;;;;0.10;0.10;;;1.70;1.00;;;;;;4956305;28;20106;-94
2020/12/25 04:07:56;;;;;;;0.10;0.10;;;1.80;1.00;;;;;;4957270;28;20026;-92
2020/12/25 04:10:22;;;;;;;0.17;0.17;;;1.80;1.00;;;;;;4969568;28;20038;-92
2020/12/25 04:12:49;;;;;;;0.10;0.10;;;1.80;1.00;;;;;;4962042;28;20484;-92
2020/12/25 04:15:16;;;;;;;0.00;0.00;;;1.80;1.00;;;;;;4949228;28;20146;-92
2020/12/25 04:17:43;;;;;;;0.10;0.10;;;1.80;1.00;;;;;;4959388;28;20051;-92
2020/12/25 04:20:10;;;;;;;0.10;0.10;;;2.00;1.00;;;;;;4970237;28;20038;-91
2020/12/25 04:22:37;;;;;;;0.30;0.30;;;2.10;99.90;;;;;;4973140;28;20030;-93
2020/12/25 04:25:04;;;;;;;0.90;0.90;;;2.00;99.90;;;;;;4977340;28;20117;-93
2020/12/25 04:27:31;;;;;;;0.10;0.10;;;1.90;99.90;;;;;;4966744;28;20050;-92
2020/12/25 04:29:58;;;;;;;0.00;0.00;;;1.80;1.00;;;;;;4962665;28;20023;-92
2020/12/25 04:32:24;;;;;;;0.20;0.20;;;1.90;99.90;;;;;;4960372;28;20034;-92
2020/12/25 04:34:51;;;;;;;0.10;0.10;;;1.90;99.90;;;;;;4967061;28;20460;-92
2020/12/25 04:37:18;;;;;;;0.20;0.20;;;1.90;99.90;;;;;;4972184;28;20030;-92
2020/12/25 04:39:44;;;;;;;1.77;1.00;;;1.90;99.90;;;;;;4955524;28;20031;-92
2020/12/25 04:42:10;;;;;;;0.00;0.00;;;1.90;99.90;;;;;;4971545;28;20122;-91
2020/12/25 04:44:35;;;;;;;4.38;1.38;;;2.00;99.90;;;;;;4971823;28;20057;-92
2020/12/25 04:47:12;;;;;;;1.25;0.52;;;1.90;99.90;;;;;;4984862;28;20056;-92
2020/12/25 04:49:39;;;;;;;0.20;0.20;;;2.00;99.90;;;;;;4972070;28;20057;-93
2020/12/25 04:52:06;;;;;;;0.20;0.20;;;1.90;99.90;;;;;;4962758;28;20034;-93
2020/12/25 04:54:34;;;;;;;0.10;0.10;;;1.80;99.90;;;;;;4962548;28;20030;-93
2020/12/25 04:57:01;;;;;;;0.10;0.10;;;1.80;99.90;;;;;;4981413;28;20039;-91
2020/12/25 04:59:29;;;;;;;0.10;0.10;;;1.80;99.90;;;;;;4973144;28;20035;-92
2020/12/25 05:01:59;;;;;;;0.10;0.10;;;1.90;99.90;;;;;;4961206;28;20464;-92
2020/12/25 05:04:27;;;;;;;0.40;0.40;;;1.90;99.90;;;;;;4978285;28;20026;-93
2020/12/25 05:06:55;;;;;;;0.22;0.22;;;1.90;99.90;;;;;;4960860;28;20058;-92
2020/12/25 05:09:30;;;;;;;0.65;0.65;;;2.00;99.90;;;;;;4970043;28;20033;-93
2020/12/25 05:11:58;;;;;;;0.32;0.32;;;2.00;99.90;;;;;;4960399;28;20058;-90
2020/12/25 05:14:26;;;;;;;23.48;1.35;;;2.00;99.90;;;;;;4963999;28;20033;-92
2020/12/25 05:16:55;;;;;;;0.38;0.38;;;1.80;99.90;;;;;;4964059;28;20386;-93
2020/12/25 05:19:29;;;;;;;0.08;0.08;;;2.00;99.90;;;;;;4962481;28;20022;-92
2020/12/25 05:22:01;;;;;;;0.10;0.10;;;1.80;99.90;;;;;;4975755;28;20030;-94
2020/12/25 05:24:35;;;;;;;0.10;0.10;;;1.70;99.90;;;;;;4960324;28;20075;-94
2020/12/25 05:27:03;;;;;;;0.20;0.20;;;1.60;1.00;;;;;;4960361;28;20026;-93
2020/12/25 05:29:30;;;;;;;0.10;0.10;;;1.60;99.90;;;;;;4969793;28;20022;-94
2020/12/25 05:31:56;;;;;;;0.10;0.10;;;1.60;1.00;;;;;;4967760;28;20093;-94
2020/12/25 05:34:23;;;;;;;0.10;0.10;;;1.70;1.00;;;;;;4960162;28;20034;-94
2020/12/25 05:36:54;;;;;;;0.25;0.25;;;1.80;99.90;;;;;;4959391;28;20027;-93
2020/12/25 05:40:09;;;;;;;0.82;0.82;;;1.80;99.90;;;;;;4958678;28;20130;-94
2020/12/25 05:42:50;;;;;;;0.10;0.10;;;1.90;99.90;;;;;;4959297;28;20104;-93
2020/12/25 05:45:32;;;;;;;0.20;0.20;;;2.10;99.90;;;;;;4977266;28;20030;-93
2020/12/25 05:48:05;;;;;;;0.17;0.17;;;2.00;99.90;;;;;;4996308;28;20097;-94
2020/12/25 05:50:31;;;;;;;0.10;0.10;;;2.00;99.90;;;;;;4976907;28;20121;-94
2020/12/25 05:52:58;;;;;;;0.10;0.10;;;2.00;99.90;;;;;;4974268;28;20122;-94
2020/12/25 05:55:25;;;;;;;1.45;0.65;;;2.00;99.90;;;;;;4975897;28;20046;-94
2020/12/25 05:57:52;;;;;;;;;;;1.90;99.90;;;;;;4979437;28;20178;-94
2020/12/25 06:00:20;;;;;;;0.20;0.20;;;1.80;1.00;;;;;;4976218;28;19910;-91
2020/12/25 06:02:48;;;;;;;0.60;0.60;;;1.60;1.00;;;;;;4954395;28;20512;-92
2020/12/25 06:05:17;;;;;;;0.10;0.10;;;1.50;1.00;;;;;;4973678;28;20105;-93
2020/12/25 06:07:59;;;;;;;0.57;0.57;;;1.50;1.00;;;;;;4981936;28;20043;-92
2020/12/25 06:10:27;;;;;;;0.17;0.17;;;1.70;1.00;;;;;;4975791;28;20027;-91
2020/12/25 06:12:56;;;;;;;0.10;0.10;;;1.70;1.00;;;;;;4974893;28;20022;-91
2020/12/25 06:15:33;;;;;;;0.10;0.10;;;1.50;1.00;;;;;;4955654;28;20116;-91
2020/12/25 06:18:15;;;;;;;0.10;0.10;;;1.50;1.00;;;;;;4963780;28;20031;-92
2020/12/25 06:21:13;;;;;;;0.20;0.20;;;1.60;1.00;;;;;;4961986;28;20113;-91
2020/12/25 06:23:43;;;;;;;0.10;0.10;;;1.80;99.90;;;;;;4863399;29;20045;-90
2020/12/25 06:26:10;;;;;;;0.20;0.20;;;1.70;99.90;;;;;;4858893;29;20497;-90
2020/12/25 06:28:41;;;;;;;0.10;0.10;;;1.80;99.90;;;;;;4874676;29;20122;-90
2020/12/25 06:31:35;;;;;;;0.10;0.10;;;1.80;99.90;;;;;;4866710;29;20045;-92
2020/12/25 06:34:03;;;;;;;0.10;0.10;;;1.60;1.00;;;;;;4861697;29;20056;-92
2020/12/25 06:36:31;;;;;;;0.10;0.10;;;1.70;1.00;;;;;;4865815;29;20025;-92
2020/12/25 06:39:08;;;;;;;0.32;0.32;;;1.80;1.00;;;;;;4861030;29;20109;-92
2020/12/25 06:41:37;;;;;;;0.30;0.30;;;1.80;99.90;;;;;;4862850;29;20041;-94
2020/12/25 06:44:13;;;;;;;0.10;0.10;;;1.80;99.90;;;;;;4864398;29;20024;-95
2020/12/25 06:46:48;;;;;;;0.10;0.10;;;1.80;99.90;;;;;;4863478;29;20056;-94
2020/12/25 06:49:16;;;;;;;0.10;0.10;;;1.80;99.90;;;;;;4862919;29;20021;-92
2020/12/25 06:51:47;;;;;;;0.10;0.10;;;1.60;99.90;;;;;;4880312;29;20118;-92
2020/12/25 06:54:20;;;;;;;0.10;0.10;;;1.60;1.00;;;;;;4878445;29;20030;-93
2020/12/25 06:56:53;;;;;;;0.10;0.10;;;1.80;99.90;;;;;;4862924;29;20065;-93
2020/12/25 06:59:21;;;;;;;0.10;0.10;;;1.90;99.90;;;;;;4865276;29;20451;-94
2020/12/25 07:01:49;;;;;;;0.10;0.10;;;1.90;99.90;;;;;;4961642;28;20069;-87
2020/12/25 07:04:33;;;;;;;0.10;0.10;;;1.90;99.90;;;;;;4965958;28;20058;-88
2020/12/25 07:07:02;;;;;;;0.10;0.10;;;2.00;99.90;;;;;;4971793;28;20147;-88
2020/12/25 07:09:40;;;;;;;0.10;0.10;;;2.10;99.90;;;;;;4983762;28;20014;-89
2020/12/25 07:12:08;;;;;;;8.57;1.40;;;2.20;99.90;;;;;;4948186;28;20515;-89
2020/12/25 07:14:34;;;;;;;0.13;0.13;;;2.20;99.90;;;;;;4959273;28;20086;-91
2020/12/25 07:17:00;;;;;;;0.10;0.10;;;2.10;99.90;;;;;;4954335;28;20694;-92
2020/12/25 07:19:26;;;;;;;0.10;0.10;;;2.10;99.90;;;;;;4953035;28;20078;-90
2020/12/25 07:21:53;;;;;;;0.10;0.10;;;2.10;99.90;;;;;;4970704;28;20208;-91
2020/12/25 07:24:19;;;;;;;0.43;0.43;;;2.20;99.90;;;;;;4953656;28;20607;-93
2020/12/25 07:26:52;;;;;;;0.15;0.15;;;2.20;99.90;;;;;;4952006;28;20461;-90
2020/12/25 07:29:19;;;;;;;0.10;0.10;;;2.10;99.90;;;;;;4945245;28;20026;-91
2020/12/25 07:31:46;;;;;;;;;;;2.10;99.90;;;;;;4976452;28;20431;-90
2020/12/25 07:34:23;;;;;;;0.25;0.25;;;2.20;99.90;;;;;;4958712;28;19914;-90
2020/12/25 07:36:51;;;;;;;0.10;0.10;;;2.20;99.90;;;;;;4956771;28;20057;-91
2020/12/25 07:39:19;;;;;;;0.10;0.10;;;2.20;99.90;;;;;;4974041;28;20034;-91
2020/12/25 07:41:46;;;;;;;0.10;0.10;;;2.20;99.90;;;;;;4977081;28;20034;-92
2020/12/25 07:44:13;;;;;;;2.63;1.05;;;2.30;99.90;;;;;;4961090;28;20030;-91
2020/12/25 07:46:40;;;;;;;0.43;0.43;;;2.20;99.90;;;;;;4964050;28;20019;-90
2020/12/25 07:49:07;;;;;;;0.08;0.08;;;2.30;99.90;;;;;;4983730;28;20716;-91
2020/12/25 07:51:34;;;;;;;0.40;0.40;;;2.30;99.90;;;;;;4976491;28;20448;-92
2020/12/25 07:54:01;;;;;;;;;;;2.40;99.90;;;;;;4960249;28;20038;-89
2020/12/25 07:56:31;;;;;;;;;;;2.50;99.90;;;;;;4953055;28;19983;-91
2020/12/25 07:58:59;;;;;;;0.10;0.10;;;2.60;99.90;;;;;;4969797;28;19910;-91
2020/12/25 08:01:28;;;;;;;0.10;0.10;;;2.50;99.90;;;;;;4976061;28;20125;-89
2020/12/25 08:03:58;;;;;;;0.10;0.10;;;2.50;99.90;;;;;;4978623;28;20175;-89
2020/12/25 08:06:28;;;;;;;0.10;0.10;;;2.60;99.90;;;;;;4978271;28;20039;-87
2020/12/25 08:08:59;;;;;;;0.10;0.10;;;2.60;99.90;;;;;;4975341;28;20029;-87
2020/12/25 08:11:27;;;;;;;0.20;0.20;;;2.70;99.90;;;;;;4968694;28;20023;-90
2020/12/25 08:14:06;;;;;;;0.10;0.10;;;2.70;99.90;;;;;;4956995;28;20050;-89
2020/12/25 08:16:37;;;;;;;0.10;0.10;;;3.40;99.90;;;;;;4943669;28;20023;-90
2020/12/25 08:19:05;;;;;;;0.20;0.20;;;4.80;99.90;;;;;;4980708;28;20038;-90
2020/12/25 08:21:33;;;;;;;0.20;0.20;;;6.50;99.90;;;;;;4954063;28;20026;-91
2020/12/25 08:24:01;;;;;;;0.10;0.10;;;4.70;99.90;;;;;;4951702;28;20054;-90
2020/12/25 08:26:47;;;;;;;0.10;0.10;;;3.70;99.90;;;;;;4953494;28;20426;-92
2020/12/25 08:29:13;;;;;;;0.68;0.68;;;3.40;99.90;;;;;;4944682;28;20030;-90
2020/12/25 08:31:40;;;;;;;0.32;0.32;;;3.20;99.90;;;;;;4955909;28;20041;-88
2020/12/25 08:34:13;;;;;;;0.10;0.10;;;3.30;99.90;;;;;;4941826;28;20019;-89
2020/12/25 08:36:39;;;;;;;0.30;0.30;;;3.20;99.90;;;;;;4948518;28;20073;-89
2020/12/25 08:39:05;;;;;;;0.43;0.43;;;3.30;99.90;;;;;;4963126;28;20546;-88
2020/12/25 08:41:31;;;;;;;0.10;0.10;;;3.70;99.90;;;;;;4971334;28;20037;-89
2020/12/25 08:44:10;;;;;;;0.30;0.30;;;3.20;99.90;;;;;;4955654;28;20039;-89
2020/12/25 08:46:37;;;;;;;0.93;0.93;;;2.90;99.90;;;;;;4969330;28;20400;-88
2020/12/25 08:49:03;;;;;;;0.52;0.52;;;3.10;99.90;;;;;;4973935;28;20038;-87
2020/12/25 08:51:38;;;;;;;0.10;0.10;;;3.30;99.90;;;;;;4963403;28;20117;-87
2020/12/25 08:54:06;;;;;;;0.82;0.82;;;4.30;99.90;;;;;;4954495;28;20023;-88
2020/12/25 08:56:45;;;;;;;0.65;0.65;;;3.90;99.90;;;;;;4972530;28;20041;-89
2020/12/25 08:59:22;;;;;;;0.10;0.10;;;5.00;99.90;;;;;;4954034;28;20023;-88
2020/12/25 09:01:55;;;;;;;0.10;0.10;;;5.90;99.90;;;;;;4959023;28;20045;-88
2020/12/25 09:04:23;;;;;;;0.10;0.10;;;8.60;99.90;;;;;;4954850;28;20027;-88
2020/12/25 09:06:58;;;;;;;0.10;0.10;;;7.90;99.90;;;;;;4963780;28;20137;-87
2020/12/25 09:09:31;;;;;;;0.10;0.10;;;10.10;99.90;;;;;;4957224;28;20026;-88
2020/12/25 09:12:06;;;;;;;0.17;0.17;;;11.20;99.90;;;;;;4972604;28;20033;-89
2020/12/25 09:14:37;;;;;;;0.30;0.30;;;7.30;99.90;;;;;;4972453;28;20105;-89
2020/12/25 09:17:24;;;;;;;0.10;0.10;;;7.20;99.90;;;;;;4954950;28;20089;-88
2020/12/25 09:19:58;;;;;;;0.17;0.17;;;7.30;99.90;;;;;;4971811;28;20027;-88
2020/12/25 09:22:25;;;;;;;0.10;0.10;;;6.60;99.90;;;;;;4961379;28;20030;-89
2020/12/25 09:24:50;;;;;;;0.10;0.10;;;7.70;99.90;;;;;;4977266;28;20069;-89
2020/12/25 09:27:17;;;;;;;0.10;0.10;;;7.90;99.90;;;;;;4959462;28;20062;-88
2020/12/25 09:29:42;;;;;;;0.10;0.10;;;7.60;99.90;;;;;;4957701;28;20122;-88
2020/12/25 09:32:09;;;;;;;0.10;0.10;;;6.30;99.90;;;;;;4975157;28;20105;-88
2020/12/25 09:34:34;;;;;;;0.17;0.17;;;4.90;99.90;;;;;;4979629;28;20038;-87
2020/12/25 09:37:00;;;;;;;0.10;0.10;;;4.30;99.90;;;;;;4974320;28;20270;-89
2020/12/25 09:39:26;;;;;;;0.20;0.20;;;4.00;99.90;;;;;;4959027;28;20022;-87
2020/12/25 09:41:52;;;;;;;0.17;0.17;;;3.90;99.90;;;;;;4953079;28;20516;-87
2020/12/25 09:44:17;;;;;;;0.73;0.73;;;3.80;99.90;;;;;;4974198;28;20378;-87
2020/12/25 09:46:43;;;;;;;0.10;0.10;;;3.70;99.90;;;;;;4971204;28;20022;-87
2020/12/25 09:49:09;;;;;;;0.20;0.20;;;3.90;99.90;;;;;;4952010;28;20058;-87
2020/12/25 09:51:35;;;;;;;0.13;0.13;;;4.10;99.90;;;;;;4955912;28;20071;-87
2020/12/25 09:54:01;;;;;;;2.72;0.75;;;4.30;99.90;;;;;;4976857;28;20026;-87
2020/12/25 09:56:26;;;;;;;0.13;0.13;;;4.30;99.90;;;;;;4978494;28;20034;-87
2020/12/25 09:58:52;;;;;;;0.10;0.10;;;4.10;99.90;;;;;;4956847;28;20053;-87
2020/12/25 10:01:21;;;;;;;0.10;0.10;;;4.10;99.90;;;;;;4956596;28;20026;-87
2020/12/25 10:03:47;;;;;;;0.10;0.10;;;4.20;99.90;;;;;;4953528;28;20125;-87
2020/12/25 10:06:17;;;;;;;0.17;0.17;;;4.00;99.90;;;;;;4953474;28;20121;-87
2020/12/25 10:08:43;;;;;;;0.17;0.17;;;4.40;99.90;;;;;;4955113;28;20523;-86
2020/12/25 10:11:09;;;;;;;0.10;0.10;;;5.30;99.90;;;;;;4970471;28;20018;-87
2020/12/25 10:13:35;;;;;;;1.48;0.38;;;6.10;99.90;;;;;;4956510;28;20110;-87
2020/12/25 10:16:00;;;;;;;0.40;0.40;;;5.90;99.90;;;;;;4974185;28;20500;-87
2020/12/25 10:18:26;;;;;;;0.10;0.10;;;5.40;99.90;;;;;;4969727;28;20831;-87
2020/12/25 10:20:52;;;;;;;0.10;0.10;;;5.00;99.90;;;;;;4970823;28;20098;-86
2020/12/25 10:23:17;;;;;;;0.38;0.32;;;5.10;99.90;;;;;;4970715;28;20034;-86
2020/12/25 10:25:43;;;;;;;0.10;0.10;;;5.00;99.90;;;;;;4973812;28;20073;-86
2020/12/25 10:28:10;;;;;;;0.10;0.10;;;4.90;99.90;;;;;;4972850;28;20031;-86
2020/12/25 10:30:36;;;;;;;0.10;0.10;;;4.80;99.90;;;;;;4946715;28;20027;-87
2020/12/25 10:33:02;;;;;;;0.10;0.10;;;4.70;99.90;;;;;;4963786;28;20043;-89
2020/12/25 10:35:28;;;;;;;0.00;0.00;;;4.80;99.90;;;;;;4953878;28;20046;-88
2020/12/25 10:37:53;;;;;;;0.38;0.38;;;4.90;99.90;;;;;;4968245;28;20034;-88
2020/12/25 10:40:19;;;;;;;0.10;0.10;;;4.80;99.90;;;;;;4968717;28;20045;-89
2020/12/25 10:42:45;;;;;;;0.28;0.28;;;4.80;99.90;;;;;;4952133;28;20038;-90
2020/12/25 10:45:10;;;;;;;0.10;0.10;;;4.80;99.90;;;;;;4947313;28;20485;-88
2020/12/25 10:47:36;;;;;;;0.10;0.10;;;4.70;99.90;;;;;;4950695;28;20045;-88
2020/12/25 10:50:03;;;;;;;0.35;0.35;;;9.20;99.90;;;;;;4964713;28;20030;-88
2020/12/25 10:52:29;;;;;;;;;;;6.50;99.90;;;;;;4962566;28;20019;-87
2020/12/25 10:54:55;;;;;;;0.10;0.10;;;6.00;99.90;;;;;;4956286;28;19914;-88
2020/12/25 10:57:21;;;;;;;0.20;0.20;;;10.70;99.90;;;;;;4945007;28;20023;-87
2020/12/25 10:59:50;;;;;;;0.10;0.10;;;12.40;99.90;;;;;;4956167;28;20043;-88
2020/12/25 11:02:16;;;;;;;1.45;1.27;;;10.90;99.90;;;;;;4959856;28;20110;-88
2020/12/25 11:04:42;;;;;;;0.10;0.10;;;6.90;99.90;;;;;;4938849;28;20121;-88
2020/12/25 11:07:08;;;;;;;29.40;1.45;;;6.00;99.90;;;;;;4929425;28;20079;-87
2020/12/25 11:09:34;;;;;;;0.10;0.10;;;5.90;99.90;;;;;;4936102;28;20474;-89
2020/12/25 11:12:00;;;;;;;0.10;0.10;;;6.00;99.90;;;;;;4929481;29;20119;-87
2020/12/25 11:14:26;;;;;;;1.30;1.08;;;6.40;99.90;;;;;;4944393;28;20911;-88
2020/12/25 11:16:52;;;;;;;0.25;0.25;;;6.40;99.90;;;;;;4936239;28;20114;-89
2020/12/25 11:19:20;;;;;;;0.10;0.10;;;5.90;99.90;;;;;;4949282;28;20114;-88
2020/12/25 11:21:45;;;;;;;;;;;6.70;99.90;;;;;;4936312;28;20058;-88
2020/12/25 11:24:12;;;;;;;0.00;0.00;;;6.30;99.90;;;;;;4962138;28;19950;-88
2020/12/25 11:26:38;;;;;;;0.20;0.20;;;6.60;99.90;;;;;;4934318;28;20516;-88
2020/12/25 11:29:07;;;;;;;0.10;0.10;;;7.60;99.90;;;;;;4938393;28;20027;-88
2020/12/25 11:31:35;;;;;;;3.20;1.35;;;6.50;99.90;;;;;;4950266;28;20046;-88
2020/12/25 11:34:01;;;;;;;0.20;0.20;;;7.50;99.90;;;;;;4945450;28;20028;-88
2020/12/25 11:36:32;;;;;;;0.10;0.10;;;6.10;99.90;;;;;;4931504;29;20035;-87
2020/12/25 11:39:00;;;;;;;0.20;0.20;;;6.10;99.90;;;;;;4932369;29;20107;-88
2020/12/25 11:41:26;;;;;;;0.32;0.32;;;6.30;99.90;;;;;;4938151;28;20472;-88
2020/12/25 11:43:54;;;;;;;0.10;0.10;;;8.20;99.90;;;;;;4937054;28;20054;-86
2020/12/25 11:46:21;;;;;;;0.20;0.20;;;8.40;99.90;;;;;;4946016;28;20035;-88
2020/12/25 11:48:47;;;;;;;0.47;0.47;;;7.70;99.90;;;;;;4920128;29;20669;-88
2020/12/25 11:51:24;;;;;;;0.10;0.10;;;6.90;99.90;;;;;;4926482;29;20759;-88
2020/12/25 11:53:52;;;;;;;;;;;6.00;99.90;;;;;;4950428;28;20095;-87
2020/12/25 11:56:31;;;;;;;0.10;0.10;;;5.80;99.90;;;;;;4923981;29;19929;-88
2020/12/25 11:58:58;;;;;;;0.10;0.10;;;5.70;99.90;;;;;;4937094;28;20031;-86
2020/12/25 12:01:24;;;;;;;;;;;5.50;99.90;;;;;;4938399;29;20028;-88
2020/12/25 12:03:50;;;;;;;0.10;0.10;;;5.70;99.90;;;;;;4945665;28;19939;-88
2020/12/25 12:06:23;;;;;;;0.10;0.10;;;5.80;99.90;;;;;;4954646;28;20089;-88
2020/12/25 12:08:50;;;;;;;0.20;0.20;;;5.70;99.90;;;;;;4969936;28;20019;-88
2020/12/25 12:11:16;;;;;;;0.45;0.35;;;5.40;99.90;;;;;;4952075;28;20055;-88
2020/12/25 12:13:42;;;;;;;0.10;0.10;;;5.30;99.90;;;;;;4969743;28;20073;-88
2020/12/25 12:16:15;;;;;;;0.10;0.10;;;5.40;99.90;;;;;;4969268;28;20082;-87
2020/12/25 12:18:41;;;;;;;0.20;0.20;;;5.50;99.90;;;;;;4952412;28;20114;-87
2020/12/25 12:21:09;;;;;;;0.20;0.20;;;5.40;99.90;;;;;;4952001;28;20034;-87
2020/12/25 12:23:35;;;;;;;0.10;0.10;;;5.20;99.90;;;;;;4952292;28;20065;-88
2020/12/25 12:26:01;;;;;;;0.10;0.10;;;4.70;99.90;;;;;;4952749;28;20043;-88
2020/12/25 12:28:27;;;;;;;0.10;0.10;;;4.80;99.90;;;;;;4969645;28;20050;-85
2020/12/25 12:30:52;;;;;;;0.17;0.17;;;5.00;99.90;;;;;;4969339;28;20105;-87
2020/12/25 12:33:18;;;;;;;0.10;0.10;;;5.10;99.90;;;;;;4952511;28;20062;-88
2020/12/25 12:35:44;;;;;;;0.20;0.20;;;4.90;99.90;;;;;;4952320;28;20082;-88
2020/12/25 12:38:10;;;;;;;0.10;0.10;;;4.70;99.90;;;;;;4952167;28;20030;-88
2020/12/25 12:40:35;;;;;;;0.10;0.10;;;4.70;99.90;;;;;;4952215;28;20026;-88
2020/12/25 12:43:01;;;;;;;0.10;0.10;;;4.40;99.90;;;;;;4969617;28;20035;-88
2020/12/25 12:45:27;;;;;;;0.35;0.30;;;4.20;99.90;;;;;;4968429;28;20031;-88
2020/12/25 12:47:53;;;;;;;0.95;0.95;;;4.10;99.90;;;;;;4969825;28;20034;-87
2020/12/25 12:50:18;;;;;;;0.10;0.10;;;4.20;99.90;;;;;;4950472;28;20046;-86
2020/12/25 12:52:44;;;;;;;0.10;0.10;;;4.20;99.90;;;;;;4958362;28;20039;-87
2020/12/25 12:55:10;;;;;;;0.10;0.10;;;4.80;99.90;;;;;;4958053;28;20022;-89
2020/12/25 12:57:36;;;;;;;0.10;0.10;;;5.10;99.90;;;;;;4969626;28;20034;-86
2020/12/25 13:00:06;;;;;;;0.10;0.10;;;5.20;99.90;;;;;;4973410;28;20500;-88
2020/12/25 13:02:31;;;;;;;0.20;0.20;;;5.10;99.90;;;;;;4968251;28;20074;-90
2020/12/25 13:04:57;;;;;;;0.63;0.63;;;4.90;99.90;;;;;;4951083;28;20061;-89
2020/12/25 13:07:24;;;;;;;0.10;0.10;;;4.80;99.90;;;;;;4968969;28;20090;-89
2020/12/25 13:09:50;;;;;;;0.15;0.15;;;4.60;99.90;;;;;;4953980;28;20559;-89